createdAt,value
2018-11-21T00:01:23.309Z,22.20
2018-11-21T00:03:55.483Z,20.27
2018-11-21T00:06:27.838Z,22.60
2018-11-21T00:09:02.045Z,20.47
2018-11-21T00:11:32.957Z,23.80
2018-11-21T00:14:06.039Z,23.03
2018-11-21T00:16:41.670Z,20.70
2018-11-21T00:19:12.752Z,23.30
2018-11-21T00:21:46.177Z,22.93
2018-11-21T00:24:26.613Z,20.90
2018-11-21T00:26:56.757Z,24.83
2018-11-21T00:29:28.015Z,22.37
2018-11-21T00:31:59.530Z,20.90
2018-11-21T00:34:30.552Z,22.13
2018-11-21T00:37:02.511Z,20.87
2018-11-21T00:39:33.513Z,20.27
2018-11-21T00:42:04.033Z,21.60
2018-11-21T00:44:37.851Z,21.43
2018-11-21T00:47:09.156Z,22.27
2018-11-21T00:49:41.949Z,21.83
2018-11-21T00:52:12.561Z,20.10
2018-11-21T00:54:42.519Z,21.00
2018-11-21T00:57:19.411Z,21.30
2018-11-21T00:59:51.757Z,20.50
2018-11-21T01:02:25.214Z,22.50
2018-11-21T01:04:57.741Z,20.23
2018-11-21T01:07:32.537Z,23.30
2018-11-21T01:10:03.915Z,20.77
2018-11-21T01:12:33.527Z,22.33
2018-11-21T01:15:03.504Z,22.23
2018-11-21T01:17:36.780Z,23.40
2018-11-21T01:20:09.474Z,23.67
2018-11-21T01:22:38.957Z,22.37
2018-11-21T01:25:09.583Z,23.33
2018-11-21T01:27:44.772Z,23.23
2018-11-21T01:30:28.900Z,22.57
2018-11-21T01:33:01.959Z,23.93
2018-11-21T01:35:35.668Z,26.10
2018-11-21T01:38:16.976Z,25.30
2018-11-21T01:40:46.768Z,25.70
2018-11-21T01:43:20.619Z,24.80
2018-11-21T01:45:54.280Z,25.90
2018-11-21T01:48:27.276Z,24.73
2018-11-21T01:50:59.752Z,25.60
2018-11-21T01:53:30.126Z,24.20
2018-11-21T01:56:02.096Z,24.57
2018-11-21T01:58:32.383Z,25.73
2018-11-21T02:01:05.131Z,24.90
2018-11-21T02:03:37.909Z,24.80
2018-11-21T02:06:09.038Z,23.23
2018-11-21T02:08:38.920Z,24.60
2018-11-21T02:11:12.302Z,23.20
2018-11-21T02:13:43.166Z,23.87
2018-11-21T02:16:18.646Z,24.17
2018-11-21T02:18:54.322Z,22.30
2018-11-21T02:21:25.108Z,23.37
2018-11-21T02:23:57.791Z,22.97
2018-11-21T02:26:30.353Z,23.77
2018-11-21T02:29:03.304Z,23.30
2018-11-21T02:31:35.555Z,24.20
2018-11-21T02:34:08.134Z,24.37
2018-11-21T02:36:39.083Z,22.80
2018-11-21T02:39:11.945Z,22.53
2018-11-21T02:41:44.602Z,22.20
2018-11-21T02:44:18.278Z,22.80
2018-11-21T02:46:47.832Z,21.37
2018-11-21T02:49:18.040Z,22.90
2018-11-21T02:51:51.274Z,21.30
2018-11-21T02:54:22.945Z,23.43
2018-11-21T02:57:18.864Z,22.90
2018-11-21T02:59:49.427Z,22.43
2018-11-21T03:02:18.987Z,23.40
2018-11-21T03:04:49.815Z,22.50
2018-11-21T03:07:21.615Z,24.13
2018-11-21T03:09:51.290Z,23.93
2018-11-21T03:12:23.335Z,22.50
2018-11-21T03:14:57.550Z,24.80
2018-11-21T03:17:40.950Z,23.37
2018-11-21T03:20:11.357Z,25.40
2018-11-21T03:22:44.888Z,25.53
2018-11-21T03:25:19.698Z,22.90
2018-11-21T03:27:52.659Z,24.20
2018-11-21T03:30:24.150Z,22.33
2018-11-21T03:32:59.070Z,23.03
2018-11-21T03:35:29.071Z,23.43
2018-11-21T03:38:00.194Z,23.03
2018-11-21T03:40:43.076Z,23.77
2018-11-21T03:43:13.687Z,21.83
2018-11-21T03:45:44.071Z,20.77
2018-11-21T03:48:14.693Z,22.90
2018-11-21T03:50:45.255Z,21.70
2018-11-21T03:53:16.094Z,20.90
2018-11-21T03:55:55.048Z,22.03
2018-11-21T03:58:25.415Z,22.00
2018-11-21T04:00:57.385Z,22.93
2018-11-21T04:03:46.900Z,21.10
2018-11-21T04:06:18.283Z,23.97
2018-11-21T04:08:49.396Z,23.33
2018-11-21T04:11:20.036Z,22.67
2018-11-21T04:13:50.602Z,21.40
2018-11-21T04:16:21.186Z,22.80
2018-11-21T04:18:55.349Z,22.57
2018-11-21T04:21:25.581Z,21.73
2018-11-21T04:23:57.367Z,21.30
2018-11-21T04:26:27.425Z,20.23
2018-11-21T04:28:57.597Z,21.73
2018-11-21T04:31:31.482Z,22.13
2018-11-21T04:34:01.552Z,23.50
2018-11-21T04:36:32.595Z,22.70
2018-11-21T04:39:04.493Z,24.53
2018-11-21T04:41:35.999Z,25.67
2018-11-21T04:44:08.452Z,24.27
2018-11-21T04:46:41.521Z,23.90
2018-11-21T04:49:11.563Z,23.90
2018-11-21T04:51:41.495Z,22.37
2018-11-21T04:54:12.644Z,25.70
2018-11-21T04:56:45.389Z,23.80
2018-11-21T04:59:16.614Z,25.00
2018-11-21T05:01:46.764Z,24.27
2018-11-21T05:04:20.486Z,23.53
2018-11-21T05:06:52.537Z,23.80
2018-11-21T05:09:24.634Z,23.23
2018-11-21T05:11:54.094Z,22.00
2018-11-21T05:14:24.590Z,23.23
2018-11-21T05:16:54.279Z,23.10
2018-11-21T05:19:23.804Z,23.00
2018-11-21T05:21:54.388Z,22.77
2018-11-21T05:24:33.207Z,22.00
2018-11-21T05:27:03.588Z,21.43
2018-11-21T05:29:33.728Z,20.90
2018-11-21T05:32:04.750Z,21.30
2018-11-21T05:34:36.091Z,19.43
2018-11-21T05:37:07.437Z,21.07
2018-11-21T05:39:38.871Z,22.67
2018-11-21T05:42:10.009Z,22.00
2018-11-21T05:44:40.773Z,22.63
2018-11-21T05:47:15.400Z,21.10
2018-11-21T05:49:45.164Z,20.40
2018-11-21T05:52:16.117Z,21.50
2018-11-21T05:54:46.244Z,22.27
2018-11-21T05:57:16.737Z,21.53
2018-11-21T05:59:47.558Z,21.20
2018-11-21T06:02:18.306Z,21.27
2018-11-21T06:04:48.989Z,22.80
2018-11-21T06:07:18.869Z,21.90
2018-11-21T06:09:52.385Z,20.27
2018-11-21T06:12:23.842Z,20.60
2018-11-21T06:14:53.884Z,20.60
2018-11-21T06:17:42.393Z,22.30
2018-11-21T06:20:29.476Z,21.87
2018-11-21T06:22:59.532Z,23.10
2018-11-21T06:25:30.087Z,22.17
2018-11-21T06:28:01.281Z,22.37
2018-11-21T06:30:33.539Z,21.70
2018-11-21T06:33:05.217Z,21.20
2018-11-21T06:35:35.936Z,21.70
2018-11-21T06:38:05.867Z,20.70
2018-11-21T06:40:37.024Z,21.10
2018-11-21T06:43:08.429Z,21.67
2018-11-21T06:45:40.810Z,19.90
2018-11-21T06:48:11.951Z,21.63
2018-11-21T06:50:43.007Z,21.67
2018-11-21T06:53:17.530Z,21.13
2018-11-21T06:55:47.431Z,21.57
2018-11-21T06:58:23.811Z,20.40
2018-11-21T07:00:54.302Z,22.40
2018-11-21T07:03:25.106Z,21.50
2018-11-21T07:05:54.674Z,23.40
2018-11-21T07:08:26.079Z,20.57
2018-11-21T07:10:57.093Z,21.97
2018-11-21T07:13:42.348Z,22.83
2018-11-21T07:16:11.852Z,22.33
2018-11-21T07:18:43.606Z,20.20
2018-11-21T07:21:14.668Z,20.57
2018-11-21T07:23:45.168Z,21.30
2018-11-21T07:26:15.260Z,20.77
2018-11-21T07:28:45.437Z,20.23
2018-11-21T07:31:17.386Z,19.30
2018-11-21T07:33:47.212Z,20.60
2018-11-21T07:36:23.186Z,21.10
2018-11-21T07:38:54.073Z,21.10
2018-11-21T07:41:25.451Z,21.30
2018-11-21T07:43:58.027Z,20.20
2018-11-21T07:46:29.479Z,20.40
2018-11-21T07:49:00.080Z,19.77
2018-11-21T07:51:30.870Z,19.90
2018-11-21T07:54:01.364Z,21.33
2018-11-21T07:57:20.663Z,20.93
2018-11-21T08:00:45.780Z,20.97
2018-11-21T08:03:23.749Z,18.53
2018-11-21T08:06:02.129Z,20.00
2018-11-21T08:09:03.475Z,20.27
2018-11-21T08:11:46.062Z,19.77
2018-11-21T08:14:35.578Z,18.43
2018-11-21T08:17:32.337Z,20.07
2018-11-21T08:20:21.006Z,18.33
2018-11-21T08:23:18.883Z,18.80
2018-11-21T08:26:25.523Z,20.60
2018-11-21T08:28:55.627Z,18.60
2018-11-21T08:31:27.019Z,19.50
2018-11-21T08:33:56.629Z,17.90
2018-11-21T08:36:26.504Z,18.83
2018-11-21T08:38:57.541Z,20.97
2018-11-21T08:41:45.707Z,19.90
2018-11-21T08:44:29.335Z,19.13
2018-11-21T08:46:59.374Z,22.20
2018-11-21T08:49:29.702Z,21.20
2018-11-21T08:51:59.955Z,20.80
2018-11-21T08:54:31.319Z,20.17
2018-11-21T08:57:04.844Z,19.80
2018-11-21T08:59:35.579Z,18.00
2018-11-21T09:02:06.960Z,19.43
2018-11-21T09:04:40.803Z,17.27
2018-11-21T09:07:13.500Z,16.70
2018-11-21T09:09:44.589Z,17.90
2018-11-21T09:12:15.617Z,18.57
2018-11-21T09:14:46.665Z,18.30
2018-11-21T09:17:16.783Z,17.43
2018-11-21T09:19:48.797Z,17.00
2018-11-21T09:22:18.694Z,17.87
2018-11-21T09:24:49.850Z,18.10
2018-11-21T09:27:19.783Z,18.97
2018-11-21T09:30:01.521Z,18.70
2018-11-21T09:32:32.888Z,18.00
2018-11-21T09:35:04.406Z,20.40
2018-11-21T09:37:37.066Z,17.47
2018-11-21T09:40:20.739Z,18.70
2018-11-21T09:42:52.154Z,18.73
2018-11-21T09:45:24.531Z,18.07
2018-11-21T09:47:54.322Z,19.10
2018-11-21T09:50:31.834Z,18.83
2018-11-21T09:53:01.507Z,19.80
2018-11-21T09:55:31.977Z,21.23
2018-11-21T09:58:02.967Z,19.43
2018-11-21T10:01:10.141Z,17.73
2018-11-21T10:03:40.389Z,18.13
2018-11-21T10:06:36.505Z,18.67
2018-11-21T10:09:16.159Z,20.60
2018-11-21T10:11:54.493Z,20.20
2018-11-21T10:14:25.040Z,20.03
2018-11-21T10:16:54.450Z,19.13
2018-11-21T10:19:24.062Z,19.30
2018-11-21T10:21:54.538Z,19.87
2018-11-21T10:24:25.482Z,19.23
2018-11-21T10:26:55.045Z,19.77
2018-11-21T10:29:24.991Z,20.33
2018-11-21T10:31:54.423Z,21.57
2018-11-21T10:34:27.055Z,21.03
2018-11-21T10:36:56.573Z,19.83
2018-11-21T10:39:29.059Z,19.97
2018-11-21T10:41:59.752Z,19.90
2018-11-21T10:44:30.067Z,21.87
2018-11-21T10:47:00.919Z,19.40
2018-11-21T10:49:31.356Z,19.80
2018-11-21T10:52:01.541Z,18.90
2018-11-21T10:54:32.032Z,21.50
2018-11-21T10:57:19.726Z,20.50
2018-11-21T10:59:50.844Z,21.80
2018-11-21T11:02:39.859Z,18.53
2018-11-21T11:05:32.671Z,19.23
2018-11-21T11:08:21.940Z,20.50
2018-11-21T11:11:15.607Z,20.43
2018-11-21T11:14:04.108Z,21.73
2018-11-21T11:16:55.953Z,19.10
2018-11-21T11:20:00.417Z,19.93
2018-11-21T11:22:49.302Z,18.10
2018-11-21T11:25:58.972Z,20.93
2018-11-21T11:28:48.413Z,19.30
2018-11-21T11:31:57.014Z,19.60
2018-11-21T11:34:55.522Z,19.57
2018-11-21T11:37:44.856Z,20.20
2018-11-21T11:40:32.526Z,21.17
2018-11-21T11:43:24.851Z,18.63
2018-11-21T11:46:12.073Z,18.80
2018-11-21T11:49:00.868Z,20.37
2018-11-21T11:51:48.775Z,19.30
2018-11-21T11:54:34.738Z,19.23
2018-11-21T11:57:41.813Z,18.77
2018-11-21T12:00:37.133Z,18.83
2018-11-21T12:03:25.015Z,19.20
2018-11-21T12:06:12.332Z,20.30
2018-11-21T12:09:00.758Z,18.73
2018-11-21T12:11:53.522Z,21.50
2018-11-21T12:14:43.467Z,20.53
2018-11-21T12:17:44.216Z,21.50
2018-11-21T12:20:31.851Z,22.13
2018-11-21T12:23:20.413Z,21.37
2018-11-21T12:26:13.841Z,20.43
2018-11-21T12:29:15.095Z,20.70
2018-11-21T12:32:06.035Z,21.70
2018-11-21T12:35:13.544Z,20.03
2018-11-21T12:38:23.159Z,19.33
2018-11-21T12:41:10.090Z,18.13
2018-11-21T12:44:09.921Z,17.87
2018-11-21T12:47:17.477Z,17.37
2018-11-21T12:50:01.218Z,18.97
2018-11-21T12:52:45.453Z,18.20
2018-11-21T12:55:33.416Z,19.07
2018-11-21T12:58:19.544Z,18.63
2018-11-21T13:01:18.143Z,19.87
2018-11-21T13:04:14.102Z,19.17
2018-11-21T13:06:58.825Z,19.47
2018-11-21T13:10:08.520Z,19.70
2018-11-21T13:13:10.120Z,20.97
2018-11-21T13:16:03.796Z,22.30
2018-11-21T13:19:04.724Z,21.53
2018-11-21T13:21:54.165Z,20.00
2018-11-21T13:25:15.853Z,22.10
2018-11-21T13:28:28.003Z,20.10
2018-11-21T13:31:15.553Z,21.30
2018-11-21T13:34:24.793Z,20.73
2018-11-21T13:37:13.649Z,22.83
2018-11-21T13:40:14.978Z,19.57
2018-11-21T13:43:02.834Z,21.33
2018-11-21T13:46:06.661Z,18.97
2018-11-21T13:48:58.062Z,18.90
2018-11-21T13:51:51.684Z,18.80
2018-11-21T13:55:01.986Z,20.60
2018-11-21T13:57:36.595Z,19.30
2018-11-21T14:00:11.152Z,22.20
2018-11-21T14:02:45.508Z,19.63
2018-11-21T14:05:22.241Z,21.17
2018-11-21T14:07:52.887Z,20.00
2018-11-21T14:10:22.793Z,20.80
2018-11-21T14:12:56.573Z,18.80
2018-11-21T14:15:29.960Z,20.63
2018-11-21T14:18:01.107Z,20.03
2018-11-21T14:20:33.916Z,20.60
2018-11-21T14:23:08.587Z,21.90
2018-11-21T14:25:39.047Z,20.60
2018-11-21T14:28:12.042Z,20.63
2018-11-21T14:30:55.226Z,20.87
2018-11-21T14:33:25.765Z,20.03
2018-11-21T14:35:56.697Z,19.60
2018-11-21T14:38:26.948Z,20.73
2018-11-21T14:41:01.539Z,21.77
2018-11-21T14:43:32.024Z,19.03
2018-11-21T14:46:03.300Z,20.30
2018-11-21T14:48:32.953Z,19.30
2018-11-21T14:51:04.566Z,20.87
2018-11-21T14:53:35.348Z,20.00
2018-11-21T14:56:05.057Z,20.10
2018-11-21T14:58:52.942Z,21.80
2018-11-21T15:01:25.115Z,23.97
2018-11-21T15:03:54.970Z,25.43
2018-11-21T15:06:26.189Z,25.57
2018-11-21T15:09:00.741Z,24.60
2018-11-21T15:11:33.276Z,26.57
2018-11-21T15:14:21.188Z,28.47
2018-11-21T15:16:52.284Z,27.63
2018-11-21T15:19:25.690Z,27.13
2018-11-21T15:21:57.496Z,28.83
2018-11-21T15:24:27.677Z,28.03
2018-11-21T15:26:58.056Z,29.30
2018-11-21T15:29:30.667Z,27.43
2018-11-21T15:32:02.285Z,26.73
2018-11-21T15:34:33.577Z,28.30
2018-11-21T15:37:03.196Z,29.77
2018-11-21T15:39:33.996Z,27.60
2018-11-21T15:42:07.115Z,29.30
2018-11-21T15:44:54.850Z,32.07
2018-11-21T15:47:27.342Z,31.90
2018-11-21T15:49:59.214Z,32.67
2018-11-21T15:52:30.161Z,30.30
2018-11-21T15:55:03.569Z,29.80
2018-11-21T15:57:43.838Z,31.37
2018-11-21T16:00:20.773Z,31.43
2018-11-21T16:02:54.373Z,30.73
2018-11-21T16:05:26.563Z,29.13
2018-11-21T16:07:57.541Z,30.57
2018-11-21T16:10:44.530Z,30.57
2018-11-21T16:13:16.581Z,32.03
2018-11-21T16:15:54.573Z,30.00
2018-11-21T16:18:26.010Z,30.60
2018-11-21T16:20:56.870Z,33.13
2018-11-21T16:23:28.314Z,32.03
2018-11-21T16:25:59.175Z,32.43
2018-11-21T16:28:33.385Z,32.50
2018-11-21T16:31:03.975Z,31.50
2018-11-21T16:33:34.734Z,32.97
2018-11-21T16:36:06.287Z,32.43
2018-11-21T16:38:37.532Z,30.87
2018-11-21T16:41:11.056Z,33.80
2018-11-21T16:43:48.170Z,33.50
2018-11-21T16:46:18.474Z,30.97
2018-11-21T16:48:48.887Z,32.33
2018-11-21T16:51:19.909Z,31.67
2018-11-21T16:53:50.490Z,32.00
2018-11-21T16:56:21.116Z,30.20
2018-11-21T16:58:54.178Z,32.90
2018-11-21T17:01:25.984Z,33.97
2018-11-21T17:03:55.639Z,32.00
2018-11-21T17:06:31.643Z,32.63
2018-11-21T17:09:05.179Z,32.57
2018-11-21T17:11:37.875Z,31.03
2018-11-21T17:14:07.889Z,31.20
2018-11-21T17:16:40.067Z,32.27
2018-11-21T17:19:09.805Z,34.50
2018-11-21T17:21:47.095Z,32.77
2018-11-21T17:24:17.784Z,34.10
2018-11-21T17:26:48.106Z,34.97
2018-11-21T17:29:18.698Z,34.00
2018-11-21T17:31:49.503Z,33.07
2018-11-21T17:34:31.111Z,34.47
2018-11-21T17:37:04.462Z,34.90
2018-11-21T17:39:33.935Z,35.40
2018-11-21T17:42:08.774Z,33.77
2018-11-21T17:44:40.808Z,35.93
2018-11-21T17:47:11.405Z,34.57
2018-11-21T17:52:17.779Z,36.10
2018-11-21T17:54:48.987Z,36.97
2018-11-21T17:57:27.889Z,36.73
2018-11-21T18:00:04.971Z,35.97
2018-11-21T18:02:35.727Z,37.87
2018-11-21T18:05:25.562Z,36.17
2018-11-21T18:07:55.783Z,38.00
2018-11-21T18:10:31.706Z,35.93
2018-11-21T18:13:20.611Z,36.07
2018-11-21T18:15:56.402Z,39.00
2018-11-21T18:18:26.974Z,39.33
2018-11-21T18:20:58.273Z,39.63
2018-11-21T18:23:33.899Z,39.10
2018-11-21T18:26:07.297Z,39.53
2018-11-21T18:28:43.688Z,40.20
2018-11-21T18:31:15.734Z,40.47
2018-11-21T18:33:46.220Z,42.83
2018-11-21T18:36:17.548Z,43.10
2018-11-21T18:38:48.466Z,43.90
2018-11-21T18:41:18.687Z,42.40
2018-11-21T18:43:52.324Z,44.63
2018-11-21T18:46:40.735Z,42.10
2018-11-21T18:49:14.144Z,40.93
2018-11-21T18:51:45.011Z,43.00
2018-11-21T18:54:15.814Z,43.97
2018-11-21T18:57:47.401Z,42.93
2018-11-21T19:00:22.777Z,45.10
2018-11-21T19:02:53.069Z,44.17
2018-11-21T19:05:23.107Z,42.40
2018-11-21T19:07:56.409Z,46.90
2018-11-21T19:10:31.197Z,41.97
2018-11-21T19:13:02.362Z,42.83
2018-11-21T19:15:32.253Z,41.37
2018-11-21T19:18:05.755Z,41.17
2018-11-21T19:20:42.784Z,42.43
2018-11-21T19:23:13.505Z,40.47
2018-11-21T19:25:46.340Z,40.53
2018-11-21T19:28:20.087Z,41.17
2018-11-21T19:30:53.327Z,42.70
2018-11-21T19:33:27.658Z,40.60
2018-11-21T19:35:58.111Z,45.03
2018-11-21T19:38:48.406Z,41.47
2018-11-21T19:41:18.392Z,40.13
2018-11-21T19:43:58.170Z,40.40
2018-11-21T19:46:35.485Z,41.93
2018-11-21T19:49:05.771Z,42.90
2018-11-21T19:51:39.678Z,42.27
2018-11-21T19:54:13.314Z,40.67
2018-11-21T19:56:43.364Z,43.17
2018-11-21T19:59:14.872Z,42.17
2018-11-21T20:01:54.314Z,41.13
2018-11-21T20:04:25.571Z,42.27
2018-11-21T20:06:56.468Z,39.90
2018-11-21T20:09:35.905Z,40.90
2018-11-21T20:12:07.289Z,41.77
2018-11-21T20:14:44.659Z,42.50
2018-11-21T20:17:16.435Z,42.03
2018-11-21T20:19:47.927Z,43.97
2018-11-21T20:22:20.728Z,41.27
2018-11-21T20:24:51.068Z,46.47
2018-11-21T20:27:21.763Z,46.43
2018-11-21T20:29:54.723Z,46.60
2018-11-21T20:32:23.644Z,49.83
2018-11-21T20:34:57.169Z,47.17
2018-11-21T20:37:27.544Z,52.17
2018-11-21T20:40:09.082Z,50.27
2018-11-21T20:42:41.491Z,50.63
2018-11-21T20:45:32.957Z,48.90
2018-11-21T20:48:03.737Z,48.07
2018-11-21T20:50:36.767Z,49.10
2018-11-21T20:53:11.294Z,49.13
2018-11-21T20:55:44.603Z,48.77
2018-11-21T20:58:15.922Z,49.60
